createdAt,value
2019-06-08T00:01:56.772Z,63.63
2019-06-08T00:03:58.449Z,63.66
2019-06-08T00:06:00.049Z,63.55
2019-06-08T00:08:01.685Z,63.88
2019-06-08T00:10:03.334Z,64.06
2019-06-08T00:12:04.910Z,64.17
2019-06-08T00:14:07.585Z,64.22
2019-06-08T00:16:09.297Z,64.26
2019-06-08T00:18:11.688Z,64.12
2019-06-08T00:20:13.506Z,64.19
2019-06-08T00:22:15.750Z,64.22
2019-06-08T00:24:17.788Z,64.44
2019-06-08T00:26:19.993Z,64.24
2019-06-08T00:28:20.527Z,64.36
2019-06-08T00:30:22.138Z,64.38
2019-06-08T00:32:24.514Z,64.37
2019-06-08T00:34:25.497Z,64.46
2019-06-08T00:36:27.150Z,64.57
2019-06-08T00:38:28.782Z,64.63
2019-06-08T00:40:30.515Z,64.62
2019-06-08T00:42:32.356Z,64.68
2019-06-08T00:44:33.995Z,64.61
2019-06-08T00:46:35.842Z,64.69
2019-06-08T00:48:37.530Z,64.72
2019-06-08T00:50:39.162Z,64.80
2019-06-08T00:52:40.730Z,64.84
2019-06-08T00:54:42.440Z,64.39
2019-06-08T00:56:44.212Z,63.32
2019-06-08T00:58:45.986Z,64.95
2019-06-08T01:00:49.025Z,64.79
2019-06-08T01:02:49.311Z,64.83
2019-06-08T01:04:51.111Z,65.02
2019-06-08T01:06:52.762Z,64.91
2019-06-08T01:08:54.385Z,64.83
2019-06-08T01:10:56.028Z,64.85
2019-06-08T01:12:57.687Z,64.89
2019-06-08T01:14:59.490Z,64.91
2019-06-08T01:17:01.134Z,64.90
2019-06-08T01:19:02.712Z,64.99
2019-06-08T01:21:04.380Z,65.05
2019-06-08T01:23:06.080Z,65.24
2019-06-08T01:25:07.706Z,65.24
2019-06-08T01:27:09.376Z,65.30
2019-06-08T01:29:10.971Z,65.33
2019-06-08T01:31:12.640Z,65.37
2019-06-08T01:33:14.266Z,65.62
2019-06-08T01:35:15.866Z,65.84
2019-06-08T01:37:17.912Z,65.94
2019-06-08T01:39:19.543Z,66.12
2019-06-08T01:41:21.364Z,66.15
2019-06-08T01:43:23.667Z,66.26
2019-06-08T01:45:30.573Z,66.29
2019-06-08T01:47:32.434Z,66.32
2019-06-08T01:49:33.911Z,66.42
2019-06-08T01:51:35.542Z,66.42
2019-06-08T01:53:37.171Z,66.41
2019-06-08T01:55:38.811Z,66.38
2019-06-08T01:57:40.429Z,66.32
2019-06-08T01:59:42.067Z,66.52
2019-06-08T02:01:43.743Z,66.44
2019-06-08T02:03:45.318Z,66.49
2019-06-08T02:05:47.061Z,66.38
2019-06-08T02:07:48.737Z,66.35
2019-06-08T02:09:50.362Z,66.32
2019-06-08T02:11:51.993Z,66.42
2019-06-08T02:13:53.562Z,66.25
2019-06-08T02:15:55.333Z,66.27
2019-06-08T02:17:56.937Z,66.21
2019-06-08T02:19:58.586Z,66.16
2019-06-08T02:22:00.351Z,66.20
2019-06-08T02:24:01.998Z,66.21
2019-06-08T02:26:03.670Z,66.01
2019-06-08T02:28:05.482Z,66.14
2019-06-08T02:30:07.116Z,66.32
2019-06-08T02:32:08.756Z,66.27
2019-06-08T02:34:10.500Z,66.35
2019-06-08T02:36:12.134Z,66.37
2019-06-08T02:38:14.563Z,66.38
2019-06-08T02:40:16.217Z,66.38
2019-06-08T02:42:18.348Z,66.36
2019-06-08T02:44:19.988Z,66.38
2019-06-08T02:46:21.618Z,66.45
2019-06-08T02:48:23.346Z,66.46
2019-06-08T02:50:24.987Z,66.54
2019-06-08T02:52:26.643Z,66.54
2019-06-08T02:54:29.989Z,66.61
2019-06-08T02:56:31.668Z,66.62
2019-06-08T02:58:33.398Z,66.68
2019-06-08T03:00:34.035Z,66.72
2019-06-08T03:02:36.924Z,66.75
2019-06-08T03:04:38.519Z,66.77
2019-06-08T03:06:39.430Z,66.76
2019-06-08T03:08:43.371Z,66.92
2019-06-08T03:10:41.859Z,67.12
2019-06-08T03:12:43.489Z,67.20
2019-06-08T03:14:45.308Z,67.15
2019-06-08T03:16:46.963Z,67.16
2019-06-08T03:18:48.593Z,66.92
2019-06-08T03:20:50.336Z,67.01
2019-06-08T03:22:52.230Z,66.91
2019-06-08T03:24:54.303Z,66.95
2019-06-08T03:26:56.063Z,66.92
2019-06-08T03:28:57.716Z,66.76
2019-06-08T03:30:59.374Z,66.80
2019-06-08T03:33:01.080Z,66.72
2019-06-08T03:35:02.718Z,66.66
2019-06-08T03:37:04.738Z,66.67
2019-06-08T03:39:06.385Z,66.64
2019-06-08T03:41:08.014Z,66.65
2019-06-08T03:43:09.651Z,66.60
2019-06-08T03:45:11.314Z,66.54
2019-06-08T03:47:13.013Z,66.51
2019-06-08T03:49:14.586Z,66.49
2019-06-08T03:51:16.154Z,66.35
2019-06-08T03:53:17.808Z,66.41
2019-06-08T03:55:19.480Z,66.24
2019-06-08T03:57:21.106Z,66.15
2019-06-08T03:59:22.956Z,66.06
2019-06-08T04:01:24.563Z,66.02
2019-06-08T04:03:26.352Z,66.19
2019-06-08T04:05:27.992Z,66.24
2019-06-08T04:07:29.618Z,66.32
2019-06-08T04:09:31.244Z,66.33
2019-06-08T04:11:32.998Z,66.38
2019-06-08T04:13:34.595Z,66.42
2019-06-08T04:15:37.809Z,66.47
2019-06-08T04:17:39.693Z,66.40
2019-06-08T04:19:56.427Z,66.57
2019-06-08T04:21:42.216Z,66.80
2019-06-08T04:23:45.351Z,66.70
2019-06-08T04:25:47.427Z,66.86
2019-06-08T04:27:47.280Z,66.89
2019-06-08T04:29:50.174Z,66.89
2019-06-08T04:31:50.761Z,66.86
2019-06-08T04:33:52.422Z,66.89
2019-06-08T04:35:54.317Z,66.86
2019-06-08T04:37:56.370Z,66.88
2019-06-08T04:39:58.003Z,66.84
2019-06-08T04:41:59.636Z,66.88
2019-06-08T04:44:01.271Z,66.90
2019-06-08T04:46:03.002Z,66.79
2019-06-08T04:48:08.452Z,66.85
2019-06-08T04:50:22.010Z,67.09
2019-06-08T04:52:08.011Z,67.04
2019-06-08T04:54:09.659Z,67.10
2019-06-08T04:56:11.387Z,67.01
2019-06-08T04:58:13.308Z,66.99
2019-06-08T05:00:14.930Z,67.08
2019-06-08T05:02:16.802Z,67.16
2019-06-08T05:04:18.422Z,67.23
2019-06-08T05:06:20.055Z,67.28
2019-06-08T05:08:21.642Z,67.21
2019-06-08T05:10:23.267Z,67.07
2019-06-08T05:12:24.910Z,67.03
2019-06-08T05:14:26.511Z,67.11
2019-06-08T05:16:28.142Z,67.04
2019-06-08T05:18:29.984Z,66.96
2019-06-08T05:20:39.095Z,67.02
2019-06-08T05:22:33.302Z,66.93
2019-06-08T05:24:34.875Z,66.97
2019-06-08T05:26:36.476Z,67.04
2019-06-08T05:28:39.096Z,67.09
2019-06-08T05:30:41.200Z,67.09
2019-06-08T05:32:41.630Z,66.91
2019-06-08T05:34:43.454Z,66.83
2019-06-08T05:36:45.446Z,66.75
2019-06-08T05:38:47.621Z,66.85
2019-06-08T05:40:49.758Z,66.87
2019-06-08T05:42:50.285Z,66.92
2019-06-08T05:44:52.230Z,66.99
2019-06-08T05:46:53.834Z,67.11
2019-06-08T05:48:55.502Z,67.01
2019-06-08T05:51:03.975Z,67.13
2019-06-08T05:52:58.764Z,67.07
2019-06-08T05:55:00.523Z,67.02
2019-06-08T05:57:02.126Z,66.91
2019-06-08T05:59:03.713Z,66.64
2019-06-08T06:01:05.338Z,66.86
2019-06-08T06:03:07.731Z,66.74
2019-06-08T06:05:09.414Z,66.95
2019-06-08T06:07:11.182Z,67.03
2019-06-08T06:09:12.810Z,67.08
2019-06-08T06:11:14.962Z,66.95
2019-06-08T06:13:16.715Z,66.96
2019-06-08T06:15:18.319Z,66.82
2019-06-08T06:17:19.986Z,66.50
2019-06-08T06:19:21.613Z,66.34
2019-06-08T06:21:23.285Z,66.08
2019-06-08T06:23:24.862Z,65.93
2019-06-08T06:25:26.520Z,65.86
2019-06-08T06:27:28.177Z,65.77
2019-06-08T06:29:29.893Z,65.62
2019-06-08T06:31:31.530Z,65.58
2019-06-08T06:33:33.190Z,65.53
2019-06-08T06:35:34.842Z,65.80
2019-06-08T06:37:36.501Z,66.11
2019-06-08T06:39:38.572Z,66.21
2019-06-08T06:41:41.753Z,66.25
2019-06-08T06:43:42.282Z,66.03
2019-06-08T06:45:44.368Z,65.66
2019-06-08T06:47:46.435Z,65.52
2019-06-08T06:49:48.411Z,65.35
2019-06-08T06:51:50.474Z,65.30
2019-06-08T06:53:51.423Z,65.25
2019-06-08T06:55:53.423Z,65.11
2019-06-08T06:57:54.795Z,65.42
2019-06-08T06:59:56.471Z,65.68
2019-06-08T07:01:58.175Z,65.87
2019-06-08T07:03:59.803Z,66.22
2019-06-08T07:06:01.579Z,65.96
2019-06-08T07:08:03.245Z,65.96
2019-06-08T07:10:05.025Z,65.98
2019-06-08T07:12:06.694Z,66.07
2019-06-08T07:14:08.303Z,66.03
2019-06-08T07:16:18.348Z,66.13
2019-06-08T07:18:11.603Z,66.11
2019-06-08T07:20:13.875Z,66.33
2019-06-08T07:22:15.687Z,66.38
2019-06-08T07:24:17.455Z,66.33
2019-06-08T07:26:19.083Z,66.35
2019-06-08T07:28:20.723Z,66.44
2019-06-08T07:30:22.434Z,66.56
2019-06-08T07:32:24.051Z,66.58
2019-06-08T07:34:25.646Z,66.59
2019-06-08T07:36:27.323Z,66.64
2019-06-08T07:38:28.946Z,66.67
2019-06-08T07:40:30.641Z,66.74
2019-06-08T07:42:32.418Z,66.70
2019-06-08T07:44:34.092Z,66.78
2019-06-08T07:46:35.671Z,66.75
2019-06-08T07:48:37.339Z,66.86
2019-06-08T07:50:38.976Z,66.91
2019-06-08T07:52:40.606Z,66.90
2019-06-08T07:54:42.254Z,66.87
2019-06-08T07:56:43.933Z,66.89
2019-06-08T07:58:45.511Z,66.90
2019-06-08T08:00:47.143Z,66.88
2019-06-08T08:02:50.068Z,67.08
2019-06-08T08:04:50.730Z,67.07
2019-06-08T08:06:52.539Z,67.07
2019-06-08T08:08:54.830Z,67.13
2019-06-08T08:10:56.736Z,67.11
2019-06-08T08:12:58.953Z,67.21
2019-06-08T08:14:59.935Z,66.66
2019-06-08T08:17:01.543Z,61.87
2019-06-08T08:19:03.267Z,56.19
2019-06-08T08:21:15.867Z,55.32
2019-06-08T08:23:09.099Z,55.03
2019-06-08T08:25:08.455Z,53.66
2019-06-08T08:27:10.068Z,52.90
2019-06-08T08:29:11.706Z,52.13
2019-06-08T08:31:15.248Z,51.85
2019-06-08T08:33:15.190Z,51.79
2019-06-08T08:35:18.562Z,51.05
2019-06-08T08:37:18.519Z,51.49
2019-06-08T08:39:20.142Z,51.08
2019-06-08T08:41:21.887Z,49.88
2019-06-08T08:43:23.546Z,51.79
2019-06-08T08:45:27.478Z,51.62
2019-06-08T08:47:27.748Z,52.59
2019-06-08T08:49:28.554Z,53.57
2019-06-08T08:51:30.260Z,53.67
2019-06-08T08:53:32.193Z,54.26
2019-06-08T08:55:33.825Z,54.81
2019-06-08T08:57:38.107Z,55.53
2019-06-08T08:59:38.239Z,55.45
2019-06-08T09:01:39.270Z,55.84
2019-06-08T09:03:40.926Z,56.20
2019-06-08T09:05:43.389Z,56.32
2019-06-08T09:07:45.083Z,56.31
2019-06-08T09:09:48.204Z,56.22
2019-06-08T09:11:48.619Z,56.44
2019-06-08T09:13:51.919Z,55.64
2019-06-08T09:15:52.709Z,52.82
2019-06-08T09:17:55.747Z,52.31
2019-06-08T09:19:58.811Z,50.19
2019-06-08T09:22:00.208Z,50.21
2019-06-08T09:24:02.603Z,50.90
2019-06-08T09:26:07.694Z,50.84
2019-06-08T09:28:04.732Z,50.50
2019-06-08T09:30:04.825Z,50.62
2019-06-08T09:32:08.231Z,50.24
2019-06-08T09:34:12.166Z,50.38
2019-06-08T09:36:09.790Z,49.81
2019-06-08T09:38:11.537Z,50.60
2019-06-08T09:40:13.299Z,51.18
2019-06-08T09:42:14.947Z,51.78
2019-06-08T09:44:18.592Z,50.61
2019-06-08T09:46:18.289Z,48.08
2019-06-08T09:48:19.944Z,49.79
2019-06-08T09:50:21.665Z,50.08
2019-06-08T09:52:23.242Z,48.92
2019-06-08T09:54:24.874Z,51.20
2019-06-08T09:56:28.332Z,49.21
2019-06-08T09:58:29.120Z,49.17
2019-06-08T10:00:30.074Z,49.91
2019-06-08T10:02:31.816Z,48.66
2019-06-08T10:04:33.606Z,49.19
2019-06-08T10:06:37.781Z,48.77
2019-06-08T10:08:38.783Z,48.56
2019-06-08T10:10:38.766Z,48.97
2019-06-08T10:12:41.343Z,49.19
2019-06-08T10:14:42.921Z,49.56
2019-06-08T10:16:44.573Z,49.00
2019-06-08T10:18:48.548Z,48.07
2019-06-08T10:20:48.334Z,49.19
2019-06-08T10:22:50.499Z,49.04
2019-06-08T10:24:51.837Z,48.88
2019-06-08T10:26:54.932Z,48.69
2019-06-08T10:28:55.356Z,48.41
2019-06-08T10:30:59.616Z,48.42
2019-06-08T10:33:00.589Z,49.25
2019-06-08T10:35:02.263Z,48.80
2019-06-08T10:37:04.983Z,49.21
2019-06-08T10:39:10.179Z,48.18
2019-06-08T10:41:14.807Z,48.30
2019-06-08T10:43:09.939Z,49.80
2019-06-08T10:45:14.273Z,48.51
2019-06-08T10:47:12.083Z,48.78
2019-06-08T10:49:14.143Z,48.57
2019-06-08T10:51:14.392Z,48.58
2019-06-08T10:53:16.703Z,48.76
2019-06-08T10:55:18.130Z,49.00
2019-06-08T10:57:19.601Z,48.16
2019-06-08T10:59:22.094Z,49.66
2019-06-08T11:01:23.722Z,49.03
2019-06-08T11:03:25.618Z,48.36
2019-06-08T11:05:28.071Z,47.99
2019-06-08T11:07:29.100Z,48.64
2019-06-08T11:09:30.742Z,49.20
2019-06-08T11:11:32.381Z,49.73
2019-06-08T11:13:33.973Z,50.10
2019-06-08T11:15:37.830Z,49.80
2019-06-08T11:17:37.890Z,49.86
2019-06-08T11:19:39.180Z,49.92
2019-06-08T11:21:40.904Z,49.81
2019-06-08T11:23:42.606Z,49.29
2019-06-08T11:25:44.213Z,49.13
2019-06-08T11:27:47.507Z,50.14
2019-06-08T11:29:47.773Z,49.50
2019-06-08T11:31:50.928Z,49.99
2019-06-08T11:33:50.991Z,50.03
2019-06-08T11:35:52.816Z,48.98
2019-06-08T11:37:54.471Z,49.00
2019-06-08T11:39:57.656Z,48.98
2019-06-08T11:41:58.793Z,49.58
2019-06-08T11:44:00.124Z,50.07
2019-06-08T11:46:02.588Z,49.24
2019-06-08T11:48:04.525Z,49.28
2019-06-08T11:50:04.910Z,49.38
2019-06-08T11:52:06.908Z,50.44
2019-06-08T11:54:25.488Z,49.91
2019-06-08T11:56:13.086Z,50.40
2019-06-08T11:58:13.678Z,50.62
2019-06-08T12:00:24.234Z,50.32
2019-06-08T12:02:14.979Z,50.08
2019-06-08T12:04:18.404Z,49.32
2019-06-08T12:06:18.641Z,50.33
2019-06-08T12:08:21.011Z,49.80
2019-06-08T12:10:21.681Z,49.92
2019-06-08T12:12:23.342Z,49.29
2019-06-08T12:14:25.025Z,49.20
2019-06-08T12:16:28.284Z,49.42
2019-06-08T12:18:28.408Z,49.45
2019-06-08T12:20:30.054Z,49.30
2019-06-08T12:22:31.670Z,49.57
2019-06-08T12:24:41.945Z,49.65
2019-06-08T12:26:34.996Z,49.97
2019-06-08T12:28:38.137Z,48.94
2019-06-08T12:30:38.505Z,49.25
2019-06-08T12:32:39.959Z,49.54
2019-06-08T12:34:41.674Z,49.87
2019-06-08T12:36:43.907Z,49.56
2019-06-08T12:38:45.578Z,50.08
2019-06-08T12:40:48.526Z,49.98
2019-06-08T12:42:49.385Z,49.42
2019-06-08T12:44:51.165Z,49.31
2019-06-08T12:46:52.882Z,49.17
2019-06-08T12:48:54.450Z,49.42
2019-06-08T12:50:56.019Z,49.10
2019-06-08T12:52:58.321Z,48.39
2019-06-08T12:55:06.325Z,48.80
2019-06-08T12:57:01.082Z,47.16
2019-06-08T12:59:02.710Z,46.35
2019-06-08T13:01:04.315Z,48.54
2019-06-08T13:03:08.199Z,48.43
2019-06-08T13:05:11.576Z,48.62
2019-06-08T13:07:10.486Z,48.72
2019-06-08T13:09:11.985Z,49.38
2019-06-08T13:11:13.867Z,49.73
2019-06-08T13:13:14.530Z,50.08
2019-06-08T13:15:19.548Z,50.51
2019-06-08T13:17:19.887Z,50.73
2019-06-08T13:19:20.334Z,50.87
2019-06-08T13:21:34.069Z,51.06
2019-06-08T13:23:23.726Z,51.07
2019-06-08T13:25:37.473Z,52.30
2019-06-08T13:27:28.182Z,52.18
2019-06-08T13:29:29.570Z,52.34
2019-06-08T13:31:31.219Z,52.50
2019-06-08T13:33:32.859Z,52.55
2019-06-08T13:35:34.521Z,52.68
2019-06-08T13:37:36.182Z,52.86
2019-06-08T13:39:38.807Z,53.11
2019-06-08T13:41:39.778Z,52.97
2019-06-08T13:43:41.439Z,53.22
2019-06-08T13:45:43.120Z,53.29
2019-06-08T13:47:44.715Z,53.52
2019-06-08T13:49:47.975Z,53.56
2019-06-08T13:51:50.653Z,53.64
2019-06-08T13:53:50.066Z,53.59
2019-06-08T13:55:56.412Z,53.61
2019-06-08T13:57:53.121Z,53.79
2019-06-08T13:59:54.942Z,53.97
2019-06-08T14:01:57.991Z,53.91
2019-06-08T14:03:58.405Z,54.01
2019-06-08T14:06:00.010Z,54.15
2019-06-08T14:08:01.638Z,54.17
2019-06-08T14:10:03.415Z,54.30
2019-06-08T14:12:04.988Z,54.31
2019-06-08T14:14:08.382Z,54.27
2019-06-08T14:16:11.557Z,54.39
2019-06-08T14:18:10.961Z,54.36
2019-06-08T14:20:12.615Z,54.53
2019-06-08T14:22:14.380Z,54.47
2019-06-08T14:24:18.186Z,54.56
2019-06-08T14:26:19.851Z,54.61
2019-06-08T14:28:21.206Z,54.65
2019-06-08T14:30:22.313Z,54.61
2019-06-08T14:32:23.823Z,54.71
2019-06-08T14:34:24.892Z,54.75
2019-06-08T14:36:28.690Z,54.79
2019-06-08T14:38:35.854Z,54.83
2019-06-08T14:40:32.732Z,54.85
2019-06-08T14:42:31.885Z,54.85
2019-06-08T14:44:34.044Z,54.91
2019-06-08T14:46:35.020Z,54.92
2019-06-08T14:48:37.945Z,54.98
2019-06-08T14:50:40.776Z,55.00
2019-06-08T14:52:40.210Z,55.06
2019-06-08T14:54:41.887Z,55.07
2019-06-08T14:56:43.654Z,55.10
2019-06-08T14:58:48.162Z,55.20
2019-06-08T15:00:48.010Z,55.25
2019-06-08T15:02:49.900Z,55.17
2019-06-08T15:04:50.645Z,55.19
2019-06-08T15:06:52.269Z,55.18
2019-06-08T15:08:54.124Z,55.61
2019-06-08T15:10:58.049Z,55.96
2019-06-08T15:12:57.941Z,55.94
2019-06-08T15:14:59.129Z,55.42
2019-06-08T15:17:01.028Z,55.57
2019-06-08T15:19:02.680Z,55.67
2019-06-08T15:21:04.331Z,55.76
2019-06-08T15:23:08.307Z,55.72
2019-06-08T15:25:08.212Z,55.51
2019-06-08T15:27:09.486Z,55.60
2019-06-08T15:29:11.159Z,55.49
2019-06-08T15:31:12.839Z,55.55
2019-06-08T15:33:14.480Z,55.55
2019-06-08T15:35:18.158Z,55.60
2019-06-08T15:37:19.593Z,55.64
2019-06-08T15:39:21.646Z,55.62
2019-06-08T15:41:24.514Z,55.67
2019-06-08T15:43:25.925Z,55.66
2019-06-08T15:45:28.815Z,55.70
2019-06-08T15:47:28.270Z,55.63
2019-06-08T15:49:32.230Z,55.64
2019-06-08T15:51:35.490Z,55.62
2019-06-08T15:53:34.179Z,55.67
2019-06-08T15:55:37.469Z,55.71
2019-06-08T15:57:40.529Z,55.71
2019-06-08T15:59:41.773Z,55.75
2019-06-08T16:01:41.355Z,55.88
2019-06-08T16:03:43.107Z,55.92
2019-06-08T16:05:44.767Z,55.95
2019-06-08T16:07:46.451Z,56.00
2019-06-08T16:09:48.070Z,56.12
2019-06-08T16:11:49.698Z,56.05
2019-06-08T16:13:51.345Z,56.12
2019-06-08T16:15:52.993Z,56.16
2019-06-08T16:17:54.710Z,56.15
2019-06-08T16:19:56.459Z,56.19
2019-06-08T16:21:58.094Z,56.19
2019-06-08T16:23:59.756Z,56.24
2019-06-08T16:26:01.395Z,56.23
2019-06-08T16:28:03.083Z,56.32
2019-06-08T16:30:09.100Z,56.30
2019-06-08T16:32:06.453Z,56.31
2019-06-08T16:34:08.086Z,56.31
2019-06-08T16:36:09.723Z,56.32
2019-06-08T16:38:11.356Z,56.34
2019-06-08T16:40:13.017Z,56.38
2019-06-08T16:42:14.602Z,56.46
2019-06-08T16:44:16.258Z,56.45
2019-06-08T16:46:17.894Z,56.43
2019-06-08T16:48:19.470Z,56.47
2019-06-08T16:50:24.752Z,56.48
2019-06-08T16:52:23.054Z,56.47
2019-06-08T16:54:24.685Z,56.48
2019-06-08T16:56:27.699Z,56.47
2019-06-08T16:58:28.106Z,56.49
2019-06-08T17:00:31.559Z,56.42
2019-06-08T17:02:32.736Z,56.40
2019-06-08T17:04:33.267Z,56.30
2019-06-08T17:06:35.281Z,55.31
2019-06-08T17:08:39.175Z,55.03
2019-06-08T17:10:38.831Z,55.27
2019-06-08T17:12:40.627Z,55.99
2019-06-08T17:14:42.866Z,56.07
2019-06-08T17:16:44.563Z,56.23
2019-06-08T17:18:46.232Z,56.17
2019-06-08T17:20:47.884Z,56.13
2019-06-08T17:22:49.516Z,56.17
2019-06-08T17:24:51.166Z,56.15
2019-06-08T17:26:52.794Z,56.21
2019-06-08T17:28:54.399Z,56.27
2019-06-08T17:30:56.103Z,56.27
2019-06-08T17:32:57.749Z,56.28
2019-06-08T17:34:59.405Z,56.29
2019-06-08T17:37:01.078Z,56.33
2019-06-08T17:39:02.713Z,56.38
2019-06-08T17:41:04.365Z,56.35
2019-06-08T17:43:06.018Z,56.41
2019-06-08T17:45:07.652Z,56.42
2019-06-08T17:47:09.289Z,56.41
2019-06-08T17:49:10.974Z,56.42
2019-06-08T17:51:12.566Z,56.45
2019-06-08T17:53:14.182Z,56.47
2019-06-08T17:55:15.811Z,56.49
2019-06-08T17:57:17.663Z,56.55
2019-06-08T17:59:19.295Z,56.61
2019-06-08T18:01:21.425Z,56.63
2019-06-08T18:03:23.063Z,56.63
2019-06-08T18:05:24.714Z,56.61
2019-06-08T18:07:27.763Z,56.62
2019-06-08T18:09:28.185Z,56.63
2019-06-08T18:11:29.731Z,56.59
2019-06-08T18:13:31.326Z,56.58
2019-06-08T18:15:34.030Z,56.53
2019-06-08T18:17:37.589Z,56.54
2019-06-08T18:19:39.831Z,56.56
2019-06-08T18:21:40.073Z,56.53
2019-06-08T18:23:40.882Z,56.52
2019-06-08T18:25:42.099Z,56.52
2019-06-08T18:28:00.743Z,56.50
2019-06-08T18:29:46.117Z,56.49
2019-06-08T18:31:48.130Z,56.44
2019-06-08T18:33:50.435Z,56.42
2019-06-08T18:35:50.335Z,56.37
2019-06-08T18:37:51.945Z,56.34
2019-06-08T18:39:53.611Z,56.33
2019-06-08T18:41:58.199Z,56.34
2019-06-08T18:43:58.325Z,56.27
2019-06-08T18:45:59.374Z,56.23
2019-06-08T18:48:01.151Z,56.24
2019-06-08T18:50:02.934Z,56.27
2019-06-08T18:52:04.812Z,56.25
2019-06-08T18:54:13.951Z,56.22
2019-06-08T18:56:08.357Z,56.19
2019-06-08T18:58:21.336Z,56.19
2019-06-08T19:00:11.924Z,56.17
2019-06-08T19:02:13.487Z,56.17
2019-06-08T19:04:15.134Z,56.13
2019-06-08T19:06:18.745Z,56.10
2019-06-08T19:08:18.419Z,56.10
2019-06-08T19:10:20.079Z,52.99
2019-06-08T19:12:21.783Z,53.71
2019-06-08T19:14:23.419Z,53.76
2019-06-08T19:16:25.114Z,54.06
2019-06-08T19:18:26.914Z,53.80
2019-06-08T19:20:28.555Z,53.25
2019-06-08T19:22:30.422Z,53.29
2019-06-08T19:24:31.998Z,53.50
2019-06-08T19:26:33.667Z,53.50
2019-06-08T19:28:37.180Z,53.48
2019-06-08T19:30:39.419Z,53.66
2019-06-08T19:32:40.488Z,53.58
2019-06-08T19:34:42.207Z,53.65
2019-06-08T19:36:43.135Z,53.81
2019-06-08T19:38:44.653Z,53.81
2019-06-08T19:40:46.142Z,53.85
2019-06-08T19:42:55.415Z,53.57
2019-06-08T19:44:59.307Z,53.26
2019-06-08T19:46:53.139Z,53.15
2019-06-08T19:48:54.877Z,53.97
2019-06-08T19:50:54.895Z,53.88
2019-06-08T19:52:58.070Z,54.39
2019-06-08T19:54:58.311Z,54.52
2019-06-08T19:57:00.012Z,54.33
2019-06-08T19:59:05.008Z,54.84
2019-06-08T20:01:03.735Z,53.97
2019-06-08T20:03:07.647Z,54.04
2019-06-08T20:05:10.221Z,53.94
2019-06-08T20:07:09.597Z,54.42
2019-06-08T20:09:11.222Z,53.91
2019-06-08T20:11:12.856Z,54.02
2019-06-08T20:13:14.508Z,54.00
2019-06-08T20:15:18.389Z,53.84
2019-06-08T20:17:19.408Z,54.46
2019-06-08T20:19:19.656Z,54.07
2019-06-08T20:21:21.254Z,54.51
2019-06-08T20:23:22.959Z,54.08
2019-06-08T20:25:24.618Z,54.26
2019-06-08T20:27:27.692Z,54.00
2019-06-08T20:29:29.387Z,54.27
2019-06-08T20:31:31.014Z,53.43
2019-06-08T20:33:32.702Z,55.21
2019-06-08T20:35:34.377Z,55.57
2019-06-08T20:37:37.722Z,55.78
2019-06-08T20:39:38.371Z,55.83
2019-06-08T20:41:40.041Z,54.12
2019-06-08T20:43:42.795Z,53.79
2019-06-08T20:45:44.085Z,53.21
2019-06-08T20:47:47.731Z,53.48
2019-06-08T20:49:49.325Z,53.98
2019-06-08T20:51:49.783Z,54.32
2019-06-08T20:53:52.475Z,54.50
2019-06-08T20:55:53.914Z,54.43
2019-06-08T20:57:54.486Z,54.52
2019-06-08T20:59:58.067Z,54.38
2019-06-08T21:01:58.931Z,54.65
2019-06-08T21:03:59.646Z,54.34
2019-06-08T21:06:01.279Z,54.61
2019-06-08T21:08:02.917Z,54.77
2019-06-08T21:10:04.601Z,54.86
2019-06-08T21:12:06.307Z,55.01
2019-06-08T21:14:07.878Z,54.68
2019-06-08T21:16:09.547Z,54.94
2019-06-08T21:18:11.218Z,54.88
2019-06-08T21:20:13.661Z,55.08
2019-06-08T21:22:18.232Z,55.13
2019-06-08T21:24:17.519Z,54.95
2019-06-08T21:26:19.130Z,55.13
2019-06-08T21:28:20.973Z,55.15
2019-06-08T21:30:24.811Z,55.33
2019-06-08T21:32:24.331Z,55.33
2019-06-08T21:34:25.958Z,55.32
2019-06-08T21:36:27.672Z,55.47
2019-06-08T21:38:29.719Z,55.54
2019-06-08T21:40:32.249Z,54.87
2019-06-08T21:42:34.124Z,55.76
2019-06-08T21:44:37.204Z,55.82
2019-06-08T21:46:38.051Z,55.97
2019-06-08T21:48:39.666Z,56.02
2019-06-08T21:50:41.298Z,56.17
2019-06-08T21:52:42.894Z,56.32
2019-06-08T21:54:44.522Z,56.35
2019-06-08T21:56:48.840Z,56.09
2019-06-08T21:58:49.725Z,56.61
2019-06-08T22:00:50.767Z,56.64
2019-06-08T22:02:51.749Z,56.74
2019-06-08T22:04:56.270Z,56.76
2019-06-08T22:06:56.659Z,56.62
2019-06-08T22:08:59.017Z,56.49
2019-06-08T22:11:00.380Z,56.65
2019-06-08T22:13:01.120Z,56.59
2019-06-08T22:15:03.002Z,56.73
2019-06-08T22:17:03.608Z,56.72
2019-06-08T22:19:07.631Z,56.96
2019-06-08T22:21:08.056Z,56.87
2019-06-08T22:23:09.237Z,57.32
2019-06-08T22:25:10.906Z,58.10
2019-06-08T22:27:12.691Z,57.91
2019-06-08T22:29:14.365Z,58.35
2019-06-08T22:31:17.109Z,57.89
2019-06-08T22:33:17.769Z,58.33
2019-06-08T22:35:19.426Z,58.66
2019-06-08T22:37:21.007Z,58.68
2019-06-08T22:39:22.584Z,58.78
2019-06-08T22:41:24.216Z,58.88
2019-06-08T22:43:25.822Z,57.68
2019-06-08T22:45:28.134Z,59.25
2019-06-08T22:47:29.264Z,59.10
2019-06-08T22:49:30.896Z,59.36
2019-06-08T22:51:32.677Z,59.43
2019-06-08T22:53:34.312Z,59.65
2019-06-08T22:55:38.001Z,59.76
2019-06-08T22:57:37.951Z,59.66
2019-06-08T22:59:39.807Z,59.60
2019-06-08T23:01:41.430Z,59.50
2019-06-08T23:03:43.055Z,59.71
2019-06-08T23:05:44.716Z,59.67
2019-06-08T23:07:48.633Z,59.75
2019-06-08T23:09:48.096Z,59.76
2019-06-08T23:11:49.731Z,59.69
2019-06-08T23:13:51.391Z,59.69
2019-06-08T23:15:53.071Z,59.69
2019-06-08T23:17:55.401Z,59.67
2019-06-08T23:19:57.823Z,59.70
2019-06-08T23:21:59.820Z,59.75
2019-06-08T23:24:01.303Z,59.74
2019-06-08T23:26:03.746Z,59.76
2019-06-08T23:28:03.630Z,59.84
2019-06-08T23:30:07.073Z,59.84
2019-06-08T23:32:11.108Z,59.82
2019-06-08T23:34:11.108Z,59.87
2019-06-08T23:36:44.463Z,59.94
2019-06-08T23:38:11.897Z,59.92
2019-06-08T23:40:13.534Z,59.89
2019-06-08T23:42:17.718Z,59.97
2019-06-08T23:44:17.664Z,59.96
2019-06-08T23:46:18.706Z,59.98
2019-06-08T23:48:20.476Z,59.98
2019-06-08T23:50:22.121Z,60.04
2019-06-08T23:52:23.811Z,60.05
2019-06-08T23:54:27.823Z,60.06
2019-06-08T23:56:27.734Z,60.09
2019-06-08T23:58:28.978Z,60.09
